sensor_id;sensor_type;location;lat;lon;timestamp;pressure;altitude;pressure_sealevel;temperature;humidity
66430;BME280;53242;51.694;10.006;2023-08-12T00:01:03;99771.72;;;20.93;68.88
66430;BME280;53242;51.694;10.006;2023-08-12T00:03:25;99787.00;;;20.87;69.23
66430;BME280;53242;51.694;10.006;2023-08-12T00:05:48;99786.94;;;20.82;69.50
66430;BME280;53242;51.694;10.006;2023-08-12T00:08:10;99782.13;;;20.84;69.54
66430;BME280;53242;51.694;10.006;2023-08-12T00:10:33;99782.38;;;20.82;69.79
66430;BME280;53242;51.694;10.006;2023-08-12T00:12:55;99782.03;;;20.74;70.34
66430;BME280;53242;51.694;10.006;2023-08-12T00:15:18;99774.28;;;20.77;70.11
66430;BME280;53242;51.694;10.006;2023-08-12T00:17:40;99774.63;;;20.86;69.97
66430;BME280;53242;51.694;10.006;2023-08-12T00:20:04;99775.59;;;20.75;70.35
66430;BME280;53242;51.694;10.006;2023-08-12T00:22:32;99773.69;;;20.70;70.39
66430;BME280;53242;51.694;10.006;2023-08-12T00:24:55;99759.69;;;20.68;70.55
66430;BME280;53242;51.694;10.006;2023-08-12T00:27:17;99756.56;;;20.76;69.56
66430;BME280;53242;51.694;10.006;2023-08-12T00:29:40;99750.59;;;20.69;69.76
66430;BME280;53242;51.694;10.006;2023-08-12T00:32:03;99753.88;;;20.49;70.90
66430;BME280;53242;51.694;10.006;2023-08-12T00:34:25;99754.56;;;20.61;70.47
66430;BME280;53242;51.694;10.006;2023-08-12T00:36:47;99759.13;;;20.66;69.79
66430;BME280;53242;51.694;10.006;2023-08-12T00:39:10;99753.94;;;20.54;70.13
66430;BME280;53242;51.694;10.006;2023-08-12T00:41:32;99758.84;;;20.62;70.19
66430;BME280;53242;51.694;10.006;2023-08-12T00:43:55;99762.72;;;20.44;71.09
66430;BME280;53242;51.694;10.006;2023-08-12T00:46:18;99757.72;;;20.58;70.69
66430;BME280;53242;51.694;10.006;2023-08-12T00:48:40;99743.53;;;20.58;70.46
66430;BME280;53242;51.694;10.006;2023-08-12T00:51:03;99748.97;;;20.68;70.20
66430;BME280;53242;51.694;10.006;2023-08-12T00:53:25;99742.38;;;20.48;70.70
66430;BME280;53242;51.694;10.006;2023-08-12T00:55:48;99743.34;;;20.37;71.58
66430;BME280;53242;51.694;10.006;2023-08-12T00:58:10;99752.72;;;20.40;71.63
66430;BME280;53242;51.694;10.006;2023-08-12T01:00:33;99737.50;;;20.45;71.32
66430;BME280;53242;51.694;10.006;2023-08-12T01:02:57;99732.09;;;20.40;71.61
66430;BME280;53242;51.694;10.006;2023-08-12T01:05:20;99726.72;;;20.40;71.55
66430;BME280;53242;51.694;10.006;2023-08-12T01:07:43;99727.56;;;20.41;71.62
66430;BME280;53242;51.694;10.006;2023-08-12T01:10:05;99725.84;;;20.29;72.08
66430;BME280;53242;51.694;10.006;2023-08-12T01:12:41;99727.72;;;20.29;73.13
66430;BME280;53242;51.694;10.006;2023-08-12T01:15:11;99730.47;;;20.12;73.62
66430;BME280;53242;51.694;10.006;2023-08-12T01:17:37;99713.50;;;20.28;72.61
66430;BME280;53242;51.694;10.006;2023-08-12T01:20:01;99714.31;;;20.29;72.51
66430;BME280;53242;51.694;10.006;2023-08-12T01:22:25;99711.88;;;20.27;72.79
66430;BME280;53242;51.694;10.006;2023-08-12T01:24:51;99714.31;;;20.29;72.53
66430;BME280;53242;51.694;10.006;2023-08-12T01:27:13;99718.53;;;20.25;74.10
66430;BME280;53242;51.694;10.006;2023-08-12T01:29:44;99709.59;;;20.41;72.52
66430;BME280;53242;51.694;10.006;2023-08-12T01:35:10;99707.69;;;20.36;72.67
66430;BME280;53242;51.694;10.006;2023-08-12T01:37:37;99713.06;;;20.14;73.54
66430;BME280;53242;51.694;10.006;2023-08-12T01:40:02;99701.88;;;20.17;73.50
66430;BME280;53242;51.694;10.006;2023-08-12T01:42:29;99695.34;;;20.08;73.65
66430;BME280;53242;51.694;10.006;2023-08-12T01:44:51;99704.72;;;20.06;74.07
66430;BME280;53242;51.694;10.006;2023-08-12T01:47:14;99703.28;;;19.98;74.38
66430;BME280;53242;51.694;10.006;2023-08-12T01:49:37;99695.47;;;19.96;74.32
66430;BME280;53242;51.694;10.006;2023-08-12T01:51:59;99699.03;;;20.02;74.38
66430;BME280;53242;51.694;10.006;2023-08-12T01:54:22;99694.03;;;20.11;74.09
66430;BME280;53242;51.694;10.006;2023-08-12T01:56:44;99694.28;;;20.09;74.34
66430;BME280;53242;51.694;10.006;2023-08-12T01:59:06;99684.03;;;20.01;74.56
66430;BME280;53242;51.694;10.006;2023-08-12T02:01:29;99688.00;;;19.98;74.80
66430;BME280;53242;51.694;10.006;2023-08-12T02:03:51;99697.41;;;20.01;74.70
66430;BME280;53242;51.694;10.006;2023-08-12T02:06:14;99701.97;;;20.00;75.04
66430;BME280;53242;51.694;10.006;2023-08-12T02:08:36;99690.69;;;19.98;75.16
66430;BME280;53242;51.694;10.006;2023-08-12T02:10:59;99697.25;;;20.13;74.58
66430;BME280;53242;51.694;10.006;2023-08-12T02:13:21;99699.25;;;19.95;75.35
66430;BME280;53242;51.694;10.006;2023-08-12T02:15:44;99695.53;;;20.01;75.11
66430;BME280;53242;51.694;10.006;2023-08-12T02:18:08;99692.94;;;19.84;75.95
66430;BME280;53242;51.694;10.006;2023-08-12T02:20:30;99688.28;;;19.75;76.37
66430;BME280;53242;51.694;10.006;2023-08-12T02:22:53;99685.81;;;19.73;76.63
66430;BME280;53242;51.694;10.006;2023-08-12T02:25:15;99676.34;;;19.82;76.16
66430;BME280;53242;51.694;10.006;2023-08-12T02:27:38;99671.13;;;19.76;76.00
66430;BME280;53242;51.694;10.006;2023-08-12T02:30:00;99668.97;;;19.72;76.24
66430;BME280;53242;51.694;10.006;2023-08-12T02:32:23;99658.13;;;19.84;74.96
66430;BME280;53242;51.694;10.006;2023-08-12T02:34:46;99655.69;;;20.10;72.47
66430;BME280;53242;51.694;10.006;2023-08-12T02:37:09;99648.38;;;20.28;71.03
66430;BME280;53242;51.694;10.006;2023-08-12T02:39:31;99648.47;;;20.38;70.42
66430;BME280;53242;51.694;10.006;2023-08-12T02:41:54;99640.06;;;20.29;70.98
66430;BME280;53242;51.694;10.006;2023-08-12T02:44:17;99645.00;;;20.43;70.07
66430;BME280;53242;51.694;10.006;2023-08-12T02:46:39;99641.03;;;20.50;69.50
66430;BME280;53242;51.694;10.006;2023-08-12T02:49:02;99641.31;;;20.54;69.12
66430;BME280;53242;51.694;10.006;2023-08-12T02:51:24;99652.38;;;20.25;71.20
66430;BME280;53242;51.694;10.006;2023-08-12T02:53:46;99645.34;;;20.19;72.27
66430;BME280;53242;51.694;10.006;2023-08-12T02:56:09;99648.06;;;20.24;71.97
66430;BME280;53242;51.694;10.006;2023-08-12T02:58:32;99650.13;;;20.17;72.54
66430;BME280;53242;51.694;10.006;2023-08-12T03:00:55;99650.41;;;20.15;72.63
66430;BME280;53242;51.694;10.006;2023-08-12T03:03:17;99655.50;;;20.17;71.64
66430;BME280;53242;51.694;10.006;2023-08-12T03:05:40;99653.38;;;20.19;71.52
66430;BME280;53242;51.694;10.006;2023-08-12T03:08:03;99656.81;;;20.14;71.81
66430;BME280;53242;51.694;10.006;2023-08-12T03:10:26;99652.28;;;20.15;71.54
66430;BME280;53242;51.694;10.006;2023-08-12T03:12:49;99650.13;;;20.17;71.47
66430;BME280;53242;51.694;10.006;2023-08-12T03:15:13;99650.91;;;20.45;69.82
66430;BME280;53242;51.694;10.006;2023-08-12T03:17:35;99646.13;;;20.47;69.09
66430;BME280;53242;51.694;10.006;2023-08-12T03:19:59;99640.78;;;20.52;68.77
66430;BME280;53242;51.694;10.006;2023-08-12T03:22:22;99645.94;;;20.59;68.20
66430;BME280;53242;51.694;10.006;2023-08-12T03:24:44;99650.78;;;20.62;68.35
66430;BME280;53242;51.694;10.006;2023-08-12T03:27:07;99657.03;;;20.40;69.70
66430;BME280;53242;51.694;10.006;2023-08-12T03:29:29;99664.75;;;20.31;70.58
66430;BME280;53242;51.694;10.006;2023-08-12T03:31:52;99684.63;;;20.08;71.98
66430;BME280;53242;51.694;10.006;2023-08-12T03:34:15;99695.41;;;19.69;74.27
66430;BME280;53242;51.694;10.006;2023-08-12T03:36:39;99711.09;;;19.60;75.29
66430;BME280;53242;51.694;10.006;2023-08-12T03:39:02;99712.66;;;19.78;74.55
66430;BME280;53242;51.694;10.006;2023-08-12T03:41:27;99704.75;;;19.66;75.65
66430;BME280;53242;51.694;10.006;2023-08-12T03:43:52;99699.19;;;19.73;75.44
66430;BME280;53242;51.694;10.006;2023-08-12T03:46:16;99708.94;;;19.57;76.52
66430;BME280;53242;51.694;10.006;2023-08-12T03:48:39;99703.75;;;19.72;76.09
66430;BME280;53242;51.694;10.006;2023-08-12T03:51:01;99694.63;;;19.68;76.35
66430;BME280;53242;51.694;10.006;2023-08-12T03:53:24;99694.88;;;19.67;76.69
66430;BME280;53242;51.694;10.006;2023-08-12T03:55:47;99695.47;;;19.52;79.85
66430;BME280;53242;51.694;10.006;2023-08-12T03:58:12;99696.66;;;19.61;77.13
66430;BME280;53242;51.694;10.006;2023-08-12T04:00:34;99691.69;;;19.70;76.63
66430;BME280;53242;51.694;10.006;2023-08-12T04:02:58;99692.19;;;19.67;76.95
66430;BME280;53242;51.694;10.006;2023-08-12T04:05:21;99697.84;;;19.70;76.84
66430;BME280;53242;51.694;10.006;2023-08-12T04:07:45;99695.66;;;19.67;76.88
66430;BME280;53242;51.694;10.006;2023-08-12T04:10:07;99697.91;;;19.76;76.59
66430;BME280;53242;51.694;10.006;2023-08-12T04:12:30;99698.72;;;19.76;76.58
66430;BME280;53242;51.694;10.006;2023-08-12T04:14:52;99704.56;;;19.73;77.59
66430;BME280;53242;51.694;10.006;2023-08-12T04:17:15;99709.97;;;19.78;77.52
66430;BME280;53242;51.694;10.006;2023-08-12T04:19:37;99714.13;;;19.86;77.76
66430;BME280;53242;51.694;10.006;2023-08-12T04:21:59;99707.66;;;19.82;78.27
66430;BME280;53242;51.694;10.006;2023-08-12T04:24:22;99699.47;;;19.94;77.81
66430;BME280;53242;51.694;10.006;2023-08-12T04:26:44;99694.56;;;19.85;78.88
66430;BME280;53242;51.694;10.006;2023-08-12T04:29:07;99693.31;;;19.93;78.23
66430;BME280;53242;51.694;10.006;2023-08-12T04:31:33;99696.56;;;19.95;79.16
66430;BME280;53242;51.694;10.006;2023-08-12T04:33:56;99704.09;;;19.98;79.50
66430;BME280;53242;51.694;10.006;2023-08-12T04:36:20;99704.88;;;19.99;80.14
66430;BME280;53242;51.694;10.006;2023-08-12T04:38:44;99712.13;;;19.98;80.35
66430;BME280;53242;51.694;10.006;2023-08-12T04:41:07;99706.72;;;19.93;80.45
66430;BME280;53242;51.694;10.006;2023-08-12T04:43:31;99702.16;;;19.94;80.58
66430;BME280;53242;51.694;10.006;2023-08-12T04:45:54;99697.16;;;20.02;80.35
66430;BME280;53242;51.694;10.006;2023-08-12T04:48:17;99697.41;;;20.01;80.55
66430;BME280;53242;51.694;10.006;2023-08-12T04:50:39;99689.69;;;20.04;80.97
66430;BME280;53242;51.694;10.006;2023-08-12T04:53:02;99698.22;;;20.01;81.22
66430;BME280;53242;51.694;10.006;2023-08-12T04:55:25;99685.69;;;20.07;81.67
66430;BME280;53242;51.694;10.006;2023-08-12T04:57:48;99686.13;;;19.99;81.42
66430;BME280;53242;51.694;10.006;2023-08-12T05:00:11;99678.81;;;19.89;81.65
66430;BME280;53242;51.694;10.006;2023-08-12T05:02:34;99675.06;;;19.90;81.39
66430;BME280;53242;51.694;10.006;2023-08-12T05:04:58;99676.06;;;19.84;82.65
66430;BME280;53242;51.694;10.006;2023-08-12T05:07:21;99675.81;;;19.85;81.00
66430;BME280;53242;51.694;10.006;2023-08-12T05:09:44;99663.84;;;19.93;80.96
66430;BME280;53242;51.694;10.006;2023-08-12T05:12:09;99652.34;;;19.93;80.84
66430;BME280;53242;51.694;10.006;2023-08-12T05:14:31;99646.66;;;19.89;81.15
66430;BME280;53242;51.694;10.006;2023-08-12T05:16:54;99648.94;;;20.02;80.69
66430;BME280;53242;51.694;10.006;2023-08-12T05:19:16;99653.84;;;20.11;80.85
66430;BME280;53242;51.694;10.006;2023-08-12T05:21:38;99645.91;;;20.21;80.22
66430;BME280;53242;51.694;10.006;2023-08-12T05:24:01;99649.69;;;20.25;80.41
66430;BME280;53242;51.694;10.006;2023-08-12T05:26:24;99644.28;;;20.20;81.07
66430;BME280;53242;51.694;10.006;2023-08-12T05:28:46;99649.16;;;20.28;80.36
66430;BME280;53242;51.694;10.006;2023-08-12T05:31:09;99653.78;;;20.33;80.49
66430;BME280;53242;51.694;10.006;2023-08-12T05:33:31;99650.88;;;20.40;80.04
66430;BME280;53242;51.694;10.006;2023-08-12T05:35:54;99654.13;;;20.42;80.31
66430;BME280;53242;51.694;10.006;2023-08-12T05:38:16;99658.44;;;20.48;80.45
66430;BME280;53242;51.694;10.006;2023-08-12T05:40:38;99657.16;;;20.56;80.61
66430;BME280;53242;51.694;10.006;2023-08-12T05:43:01;99655.47;;;20.44;82.27
66430;BME280;53242;51.694;10.006;2023-08-12T05:45:23;99651.75;;;20.50;81.63
66430;BME280;53242;51.694;10.006;2023-08-12T05:47:46;99645.03;;;20.48;82.17
66430;BME280;53242;51.694;10.006;2023-08-12T05:50:08;99635.13;;;20.48;82.20
66430;BME280;53242;51.694;10.006;2023-08-12T05:52:31;99631.50;;;20.65;81.17
66430;BME280;53242;51.694;10.006;2023-08-12T05:54:53;99644.66;;;20.66;81.01
66430;BME280;53242;51.694;10.006;2023-08-12T05:57:15;99647.56;;;20.60;81.44
66430;BME280;53242;51.694;10.006;2023-08-12T05:59:38;99656.66;;;20.59;80.97
66430;BME280;53242;51.694;10.006;2023-08-12T06:02:00;99659.00;;;20.50;82.21
66430;BME280;53242;51.694;10.006;2023-08-12T06:04:23;99666.28;;;20.54;82.77
66430;BME280;53242;51.694;10.006;2023-08-12T06:06:45;99671.34;;;20.51;83.34
66430;BME280;53242;51.694;10.006;2023-08-12T06:09:07;99666.97;;;20.40;84.02
66430;BME280;53242;51.694;10.006;2023-08-12T06:11:30;99663.72;;;20.37;83.43
66430;BME280;53242;51.694;10.006;2023-08-12T06:13:52;99662.31;;;20.30;84.13
66430;BME280;53242;51.694;10.006;2023-08-12T06:16:15;99662.31;;;20.30;84.28
66430;BME280;53242;51.694;10.006;2023-08-12T06:18:37;99661.03;;;20.37;84.54
66430;BME280;53242;51.694;10.006;2023-08-12T06:21:00;99653.84;;;20.43;84.59
66430;BME280;53242;51.694;10.006;2023-08-12T06:23:22;99645.28;;;20.46;84.89
66430;BME280;53242;51.694;10.006;2023-08-12T06:25:44;99650.69;;;20.51;84.45
66430;BME280;53242;51.694;10.006;2023-08-12T06:28:07;99642.69;;;20.57;84.27
66430;BME280;53242;51.694;10.006;2023-08-12T06:30:31;99645.09;;;20.58;83.80
66430;BME280;53242;51.694;10.006;2023-08-12T06:32:53;99642.75;;;20.67;83.08
66430;BME280;53242;51.694;10.006;2023-08-12T06:35:16;99648.66;;;20.64;83.58
66430;BME280;53242;51.694;10.006;2023-08-12T06:37:38;99642.22;;;20.65;83.20
66430;BME280;53242;51.694;10.006;2023-08-12T06:40:01;99647.00;;;20.58;82.91
66430;BME280;53242;51.694;10.006;2023-08-12T06:42:23;99652.06;;;20.54;82.42
66430;BME280;53242;51.694;10.006;2023-08-12T06:44:45;99649.41;;;20.59;81.78
66430;BME280;53242;51.694;10.006;2023-08-12T06:47:08;99653.38;;;20.51;82.05
66430;BME280;53242;51.694;10.006;2023-08-12T06:49:30;99655.78;;;20.53;81.96
66430;BME280;53242;51.694;10.006;2023-08-12T06:51:53;99657.94;;;20.51;81.82
66430;BME280;53242;51.694;10.006;2023-08-12T06:54:15;99648.31;;;20.55;81.77
66430;BME280;53242;51.694;10.006;2023-08-12T06:56:38;99643.59;;;20.67;81.38
66430;BME280;53242;51.694;10.006;2023-08-12T06:59:00;99637.63;;;20.60;81.66
66430;BME280;53242;51.694;10.006;2023-08-12T07:01:22;99639.03;;;20.68;81.29
66430;BME280;53242;51.694;10.006;2023-08-12T07:03:45;99632.81;;;20.62;81.23
66430;BME280;53242;51.694;10.006;2023-08-12T07:06:07;99641.41;;;20.64;81.38
66430;BME280;53242;51.694;10.006;2023-08-12T07:08:30;99640.06;;;20.67;81.27
66430;BME280;53242;51.694;10.006;2023-08-12T07:10:53;99644.00;;;20.54;82.10
66430;BME280;53242;51.694;10.006;2023-08-12T07:13:15;99636.78;;;20.54;81.36
66430;BME280;53242;51.694;10.006;2023-08-12T07:15:38;99634.88;;;20.50;81.62
66430;BME280;53242;51.694;10.006;2023-08-12T07:18:00;99640.75;;;20.47;81.81
66430;BME280;53242;51.694;10.006;2023-08-12T07:20:26;99640.28;;;20.55;81.88
66430;BME280;53242;51.694;10.006;2023-08-12T07:22:48;99645.03;;;20.48;82.06
66430;BME280;53242;51.694;10.006;2023-08-12T07:25:10;99645.91;;;20.53;81.62
66430;BME280;53242;51.694;10.006;2023-08-12T07:27:33;99639.66;;;20.48;82.32
66430;BME280;53242;51.694;10.006;2023-08-12T07:29:55;99643.47;;;20.52;81.69
66430;BME280;53242;51.694;10.006;2023-08-12T07:32:18;99636.59;;;20.66;81.14
66430;BME280;53242;51.694;10.006;2023-08-12T07:34:41;99645.25;;;20.74;81.24
66430;BME280;53242;51.694;10.006;2023-08-12T07:37:03;99628.88;;;20.70;82.42
66430;BME280;53242;51.694;10.006;2023-08-12T07:39:26;99634.44;;;20.68;82.90
66430;BME280;53242;51.694;10.006;2023-08-12T07:41:48;99629.44;;;20.77;82.28
66430;BME280;53242;51.694;10.006;2023-08-12T07:44:10;99632.75;;;20.90;81.37
66430;BME280;53242;51.694;10.006;2023-08-12T07:46:33;99630.00;;;20.79;82.40
66430;BME280;53242;51.694;10.006;2023-08-12T07:48:56;99628.56;;;20.66;82.62
66430;BME280;53242;51.694;10.006;2023-08-12T07:51:19;99618.78;;;20.50;82.84
66430;BME280;53242;51.694;10.006;2023-08-12T07:53:41;99606.13;;;20.45;83.18
66430;BME280;53242;51.694;10.006;2023-08-12T07:56:03;99604.88;;;20.58;82.41
66430;BME280;53242;51.694;10.006;2023-08-12T07:58:26;99606.25;;;20.61;81.86
66430;BME280;53242;51.694;10.006;2023-08-12T08:00:48;99610.06;;;20.65;81.95
66430;BME280;53242;51.694;10.006;2023-08-12T08:03:14;99613.09;;;20.79;81.01
66430;BME280;53242;51.694;10.006;2023-08-12T08:05:40;99608.88;;;20.88;80.48
66430;BME280;53242;51.694;10.006;2023-08-12T08:08:02;99604.56;;;20.87;80.66
66430;BME280;53242;51.694;10.006;2023-08-12T08:10:25;99610.59;;;20.67;81.99
66430;BME280;53242;51.694;10.006;2023-08-12T08:12:47;99603.47;;;20.83;81.57
66430;BME280;53242;51.694;10.006;2023-08-12T08:15:10;99605.28;;;20.72;81.67
66430;BME280;53242;51.694;10.006;2023-08-12T08:17:32;99609.78;;;20.66;82.43
66430;BME280;53242;51.694;10.006;2023-08-12T08:19:55;99606.56;;;20.69;82.45
66430;BME280;53242;51.694;10.006;2023-08-12T08:22:17;99606.13;;;20.78;81.96
66430;BME280;53242;51.694;10.006;2023-08-12T08:24:40;99602.25;;;21.06;80.44
66430;BME280;53242;51.694;10.006;2023-08-12T08:27:02;99607.44;;;20.70;82.16
66430;BME280;53242;51.694;10.006;2023-08-12T08:29:26;99604.50;;;20.77;82.53
66430;BME280;53242;51.694;10.006;2023-08-12T08:31:49;99594.44;;;20.99;81.53
66430;BME280;53242;51.694;10.006;2023-08-12T08:34:11;99594.09;;;20.85;82.29
66430;BME280;53242;51.694;10.006;2023-08-12T08:36:33;99592.53;;;20.95;82.69
66430;BME280;53242;51.694;10.006;2023-08-12T08:38:56;99601.88;;;20.87;82.99
66430;BME280;53242;51.694;10.006;2023-08-12T08:41:19;99589.38;;;21.08;82.40
66430;BME280;53242;51.694;10.006;2023-08-12T08:43:42;99586.94;;;21.01;82.83
66430;BME280;53242;51.694;10.006;2023-08-12T08:46:08;99593.25;;;21.33;81.67
66430;BME280;53242;51.694;10.006;2023-08-12T08:48:32;99596.78;;;21.49;81.24
66430;BME280;53242;51.694;10.006;2023-08-12T08:50:55;99601.41;;;21.64;80.73
66430;BME280;53242;51.694;10.006;2023-08-12T08:53:18;99601.16;;;21.76;80.18
66430;BME280;53242;51.694;10.006;2023-08-12T08:55:41;99600.09;;;21.72;79.77
66430;BME280;53242;51.694;10.006;2023-08-12T08:58:04;99611.91;;;21.71;79.72
66430;BME280;53242;51.694;10.006;2023-08-12T09:00:27;99607.06;;;21.83;79.65
66430;BME280;53242;51.694;10.006;2023-08-12T09:02:50;99599.31;;;22.07;78.66
66430;BME280;53242;51.694;10.006;2023-08-12T09:05:14;99600.13;;;22.33;77.81
66430;BME280;53242;51.694;10.006;2023-08-12T09:07:38;99604.69;;;22.54;77.30
66430;BME280;53242;51.694;10.006;2023-08-12T09:10:01;99596.63;;;22.54;78.10
66430;BME280;53242;51.694;10.006;2023-08-12T09:12:26;99594.78;;;22.49;77.85
66430;BME280;53242;51.694;10.006;2023-08-12T09:14:48;99592.84;;;22.65;77.82
66430;BME280;53242;51.694;10.006;2023-08-12T09:17:11;99586.13;;;22.62;77.22
66430;BME280;53242;51.694;10.006;2023-08-12T09:19:33;99586.41;;;22.66;77.53
66430;BME280;53242;51.694;10.006;2023-08-12T09:21:55;99585.03;;;22.74;76.95
66430;BME280;53242;51.694;10.006;2023-08-12T09:24:24;99573.31;;;23.09;76.29
66430;BME280;53242;51.694;10.006;2023-08-12T09:26:51;99566.81;;;23.26;76.29
66430;BME280;53242;51.694;10.006;2023-08-12T09:29:14;99557.28;;;23.49;74.85
66430;BME280;53242;51.694;10.006;2023-08-12T09:31:36;99552.75;;;23.39;75.02
66430;BME280;53242;51.694;10.006;2023-08-12T09:34:03;99545.09;;;23.57;74.57
66430;BME280;53242;51.694;10.006;2023-08-12T09:36:30;99541.13;;;23.84;73.47
66430;BME280;53242;51.694;10.006;2023-08-12T09:38:53;99541.28;;;24.03;72.75
66430;BME280;53242;51.694;10.006;2023-08-12T09:41:15;99539.50;;;24.22;72.24
66430;BME280;53242;51.694;10.006;2023-08-12T09:43:41;99538.59;;;24.32;71.27
66430;BME280;53242;51.694;10.006;2023-08-12T09:46:05;99537.22;;;24.64;70.46
66430;BME280;53242;51.694;10.006;2023-08-12T09:48:27;99538.28;;;24.63;71.07
66430;BME280;53242;51.694;10.006;2023-08-12T09:50:49;99532.56;;;24.40;72.15
66430;BME280;53242;51.694;10.006;2023-08-12T09:53:12;99543.91;;;24.42;72.70
66430;BME280;53242;51.694;10.006;2023-08-12T09:55:35;99556.69;;;24.56;71.22
66430;BME280;53242;51.694;10.006;2023-08-12T09:57:59;99549.19;;;24.53;71.12
66430;BME280;53242;51.694;10.006;2023-08-12T10:00:23;99566.91;;;24.35;71.18
66430;BME280;53242;51.694;10.006;2023-08-12T10:02:48;99552.69;;;24.24;70.67
66430;BME280;53242;51.694;10.006;2023-08-12T10:05:12;99541.94;;;24.48;70.58
66430;BME280;53242;51.694;10.006;2023-08-12T10:07:39;99528.25;;;24.39;69.99
66430;BME280;53242;51.694;10.006;2023-08-12T10:10:02;99537.53;;;24.33;69.72
66430;BME280;53242;51.694;10.006;2023-08-12T10:12:27;99537.41;;;24.43;70.83
66430;BME280;53242;51.694;10.006;2023-08-12T10:14:51;99532.94;;;24.58;70.00
66430;BME280;53242;51.694;10.006;2023-08-12T10:17:14;99542.84;;;24.62;70.45
66430;BME280;53242;51.694;10.006;2023-08-12T10:19:37;99533.34;;;24.70;69.58
66430;BME280;53242;51.694;10.006;2023-08-12T10:22:02;99533.44;;;24.60;69.79
66430;BME280;53242;51.694;10.006;2023-08-12T10:24:26;99528.78;;;24.71;69.71
66430;BME280;53242;51.694;10.006;2023-08-12T10:26:51;99530.25;;;24.58;69.22
66430;BME280;53242;51.694;10.006;2023-08-12T10:29:14;99519.78;;;24.75;69.31
66430;BME280;53242;51.694;10.006;2023-08-12T10:31:38;99526.31;;;24.93;69.21
66430;BME280;53242;51.694;10.006;2023-08-12T10:34:00;99530.00;;;25.03;68.14
66430;BME280;53242;51.694;10.006;2023-08-12T10:36:23;99530.41;;;25.53;67.00
66430;BME280;53242;51.694;10.006;2023-08-12T10:38:45;99522.63;;;25.85;66.41
66430;BME280;53242;51.694;10.006;2023-08-12T10:41:22;99527.56;;;25.97;64.95
66430;BME280;53242;51.694;10.006;2023-08-12T10:49:05;99530.53;;;25.24;65.66
66430;BME280;53242;51.694;10.006;2023-08-12T10:51:51;99541.44;;;25.38;67.21
66430;BME280;53242;51.694;10.006;2023-08-12T11:02:07;99534.13;;;25.57;67.40
66430;BME280;53242;51.694;10.006;2023-08-12T11:04:37;99515.94;;;25.63;66.60
66430;BME280;53242;51.694;10.006;2023-08-12T11:06:59;99507.66;;;25.73;66.99
66430;BME280;53242;51.694;10.006;2023-08-12T11:09:22;99502.22;;;26.25;66.07
66430;BME280;53242;51.694;10.006;2023-08-12T11:11:44;99503.03;;;26.68;65.57
66430;BME280;53242;51.694;10.006;2023-08-12T11:14:14;99484.50;;;26.47;64.54
66430;BME280;53242;51.694;10.006;2023-08-12T11:16:37;99475.84;;;26.45;64.89
66430;BME280;53242;51.694;10.006;2023-08-12T11:19:00;99476.63;;;27.01;63.73
66430;BME280;53242;51.694;10.006;2023-08-12T11:21:22;99473.09;;;27.37;63.47
66430;BME280;53242;51.694;10.006;2023-08-12T11:23:45;99482.91;;;27.70;63.10
66430;BME280;53242;51.694;10.006;2023-08-12T11:26:08;99481.75;;;28.16;62.44
66430;BME280;53242;51.694;10.006;2023-08-12T11:28:31;99493.28;;;27.31;63.48
66430;BME280;53242;51.694;10.006;2023-08-12T11:30:55;99491.59;;;27.21;63.71
66430;BME280;53242;51.694;10.006;2023-08-12T11:33:17;99480.13;;;27.02;64.23
66430;BME280;53242;51.694;10.006;2023-08-12T11:35:40;99471.03;;;26.84;63.08
66430;BME280;53242;51.694;10.006;2023-08-12T11:38:04;99466.44;;;26.70;63.90
66430;BME280;53242;51.694;10.006;2023-08-12T11:40:27;99459.81;;;26.35;63.25
66430;BME280;53242;51.694;10.006;2023-08-12T11:42:51;99459.50;;;26.50;63.03
66430;BME280;53242;51.694;10.006;2023-08-12T11:45:17;99464.34;;;26.39;63.53
66430;BME280;53242;51.694;10.006;2023-08-12T11:47:40;99455.72;;;26.37;63.14
66430;BME280;53242;51.694;10.006;2023-08-12T11:50:03;99465.84;;;26.46;62.50
66430;BME280;53242;51.694;10.006;2023-08-12T11:52:26;99471.44;;;26.63;61.51
66430;BME280;53242;51.694;10.006;2023-08-12T11:54:51;99470.84;;;26.52;61.93
66430;BME280;53242;51.694;10.006;2023-08-12T11:57:14;99463.81;;;26.37;62.33
66430;BME280;53242;51.694;10.006;2023-08-12T11:59:37;99469.84;;;26.48;61.85
66430;BME280;53242;51.694;10.006;2023-08-12T12:02:02;99463.25;;;26.40;61.55
66430;BME280;53242;51.694;10.006;2023-08-12T12:04:25;99467.03;;;26.25;61.71
66430;BME280;53242;51.694;10.006;2023-08-12T12:06:47;99476.25;;;26.38;62.07
66430;BME280;53242;51.694;10.006;2023-08-12T12:09:10;99482.09;;;26.46;62.07
66430;BME280;53242;51.694;10.006;2023-08-12T12:11:32;99470.13;;;26.47;62.07
66430;BME280;53242;51.694;10.006;2023-08-12T12:13:55;99469.38;;;26.74;60.60
66430;BME280;53242;51.694;10.006;2023-08-12T12:16:17;99469.13;;;26.70;61.66
66430;BME280;53242;51.694;10.006;2023-08-12T12:18:41;99470.66;;;26.49;61.96
66430;BME280;53242;51.694;10.006;2023-08-12T12:21:03;99472.34;;;26.31;62.36
66430;BME280;53242;51.694;10.006;2023-08-12T12:23:30;99458.22;;;26.48;61.65
66430;BME280;53242;51.694;10.006;2023-08-12T12:26:00;99458.31;;;26.56;61.31
66430;BME280;53242;51.694;10.006;2023-08-12T12:28:23;99461.13;;;26.37;62.10
66430;BME280;53242;51.694;10.006;2023-08-12T12:30:45;99458.72;;;26.36;61.83
66430;BME280;53242;51.694;10.006;2023-08-12T12:33:08;99450.50;;;26.13;62.64
66430;BME280;53242;51.694;10.006;2023-08-12T12:35:30;99449.19;;;26.10;62.37
66430;BME280;53242;51.694;10.006;2023-08-12T12:37:53;99447.16;;;26.02;63.05
66430;BME280;53242;51.694;10.006;2023-08-12T12:40:15;99443.63;;;25.88;63.41
66430;BME280;53242;51.694;10.006;2023-08-12T12:42:38;99443.16;;;26.00;62.85
66430;BME280;53242;51.694;10.006;2023-08-12T12:45:01;99450.00;;;26.11;62.66